^^
Grace C. Lehan Memorial Weather Station Historical Data
Daily Summary for June 13, 2021 Units:  Both    English   Metric
Daily Weekly Monthly Yearly
  High: Low: Average:
Temperature: 72.3 °F /  22.4 °C 43.2 °F /  6.2 °C 59.8 °F /  15.4 °C
Dew Point: 46.3 °F /  7.9 °C 33.1 °F /  0.6 °C 39.2 °F /  4 °C
Humidity: 86% 25.7% 51%
Wind Speed: 3.1mph /  5km/h - 0.2mph /  0.3km/h
Wind Gust: 9mph /  14.5km/h - -
Wind- - SSW
Pressure: 30.18 in /  1021.9 hPa 30.08 in /  1018.5 hPa -
Precipitation: 0.00 in /  0 mm    
 
 
Tabular Data for June 13, 2021
Time Temperature Dew Point Pressure Wind Wind Speed Wind Gust Humidity Rainfall Rate (Hourly) solar
00:00 53.6 °F /  12 °C 37.8 °F /  3.2 °C 30.15in /  1020.9hPa Calm     55% 0.00in /  0mm 0 W/m2
00:09 53.7 °F /  12.1 °C 37.5 °F /  3.1 °C 30.15in /  1020.9hPa Calm     54% 0.00in /  0mm 0 W/m2
00:14 53.7 °F /  12.1 °C 37.7 °F /  3.2 °C 30.15in /  1020.9hPa Calm     54.4% 0.00in /  0mm 0 W/m2
00:19 53.7 °F /  12.1 °C 38.4 °F /  3.6 °C 30.15in /  1020.9hPa Calm     56.1% 0.00in /  0mm 0 W/m2
00:24 53.4 °F /  11.9 °C 39 °F /  3.9 °C 30.15in /  1020.9hPa Calm     58% 0.00in /  0mm 0 W/m2
00:29 53.2 °F /  11.8 °C 39 °F /  3.9 °C 30.15in /  1020.9hPa Calm     58.4% 0.00in /  0mm 0 W/m2
00:34 52.9 °F /  11.6 °C 39.2 °F /  4 °C 30.15in /  1020.9hPa Calm     59.6% 0.00in /  0mm 0 W/m2
00:39 52.6 °F /  11.4 °C 39.4 °F /  4.1 °C 30.15in /  1020.9hPa Calm     60.7% 0.00in /  0mm 0 W/m2
00:44 52.3 °F /  11.3 °C 39 °F /  3.9 °C 30.15in /  1020.9hPa Calm     60.2% 0.00in /  0mm 0 W/m2
00:49 52 °F /  11.1 °C 39.5 °F /  4.2 °C 30.15in /  1020.9hPa Calm     62.2% 0.00in /  0mm 0 W/m2
00:54 51.7 °F /  10.9 °C 39.8 °F /  4.3 °C 30.15in /  1020.9hPa Calm     63.7% 0.00in /  0mm 0 W/m2
00:59 51.3 °F /  10.7 °C 39.3 °F /  4.1 °C 30.15in /  1020.9hPa Calm     63.2% 0.00in /  0mm 0 W/m2
01:04 51.1 °F /  10.6 °C 39.2 °F /  4 °C 30.15in /  1020.9hPa Calm     63.6% 0.00in /  0mm 0 W/m2
01:09 50.9 °F /  10.5 °C 39.3 °F /  4.1 °C 30.15in /  1020.9hPa Calm     64.5% 0.00in /  0mm 0 W/m2
01:14 50.7 °F /  10.4 °C 39.5 °F /  4.2 °C 30.15in /  1020.9hPa Calm     65.2% 0.00in /  0mm 0 W/m2
01:19 50.6 °F /  10.3 °C 39.6 °F /  4.2 °C 30.15in /  1020.9hPa Calm     66% 0.00in /  0mm 0 W/m2
01:24 50.4 °F /  10.2 °C 39.7 °F /  4.3 °C 30.15in /  1020.9hPa Calm     66.5% 0.00in /  0mm 0 W/m2
01:29 50.2 °F /  10.1 °C 39.7 °F /  4.3 °C 30.15in /  1020.9hPa Calm     67% 0.00in /  0mm 0 W/m2
01:34 50.1 °F /  10.1 °C 39.5 °F /  4.2 °C 30.15in /  1020.9hPa Calm     67% 0.00in /  0mm 0 W/m2
01:39 49.9 °F /  9.9 °C 39.4 °F /  4.1 °C 30.15in /  1020.9hPa Calm     67% 0.00in /  0mm 0 W/m2
01:44 49.8 °F /  9.9 °C 39.3 °F /  4.1 °C 30.15in /  1020.9hPa Calm     67% 0.00in /  0mm 0 W/m2
01:49 49.6 °F /  9.8 °C 39.4 °F /  4.1 °C 30.15in /  1020.9hPa Calm     67.5% 0.00in /  0mm 0 W/m2
01:54 49.5 °F /  9.7 °C 39.7 °F /  4.3 °C 30.15in /  1020.9hPa Calm     68.9% 0.00in /  0mm 0 W/m2
01:59 49.3 °F /  9.6 °C 39.2 °F /  4 °C 30.15in /  1020.9hPa Calm     68% 0.00in /  0mm 0 W/m2
02:04 49 °F /  9.4 °C 39.2 °F /  4 °C 30.14in /  1020.5hPa Calm     68.6% 0.00in /  0mm 0 W/m2
02:09 48.8 °F /  9.3 °C 39.4 °F /  4.1 °C 30.14in /  1020.5hPa Calm     69.8% 0.00in /  0mm 0 W/m2
02:14 48.6 °F /  9.2 °C 39.6 °F /  4.2 °C 30.14in /  1020.5hPa Calm     70.8% 0.00in /  0mm 0 W/m2
02:19 48.5 °F /  9.2 °C 39.8 °F /  4.3 °C 30.14in /  1020.5hPa Calm     71.9% 0.00in /  0mm 0 W/m2
02:24 48.3 °F /  9.1 °C 39.7 °F /  4.3 °C 30.14in /  1020.5hPa Calm     72% 0.00in /  0mm 0 W/m2
02:29 48.1 °F /  8.9 °C 39.7 °F /  4.3 °C 30.15in /  1020.9hPa Calm     72.4% 0.00in /  0mm 0 W/m2
02:34 47.9 °F /  8.8 °C 39.4 °F /  4.1 °C 30.14in /  1020.5hPa Calm     72.2% 0.00in /  0mm 0 W/m2
02:39 47.8 °F /  8.8 °C 39.3 °F /  4.1 °C 30.15in /  1020.9hPa Calm     72.2% 0.00in /  0mm 0 W/m2
02:44 47.7 °F /  8.7 °C 39.1 °F /  3.9 °C 30.15in /  1020.9hPa Calm     72% 0.00in /  0mm 0 W/m2
02:49 47.6 °F /  8.7 °C 39 °F /  3.9 °C 30.15in /  1020.9hPa Calm     72% 0.00in /  0mm 0 W/m2
02:54 47.5 °F /  8.6 °C 39 °F /  3.9 °C 30.15in /  1020.9hPa Calm     72% 0.00in /  0mm 0 W/m2
02:59 47.4 °F /  8.6 °C 38.9 °F /  3.8 °C 30.15in /  1020.9hPa Calm     72.2% 0.00in /  0mm 0 W/m2
03:04 47.4 °F /  8.6 °C 39.4 °F /  4.1 °C 30.15in /  1020.9hPa Calm     73.8% 0.00in /  0mm 0 W/m2
03:09 47.3 °F /  8.5 °C 39.1 °F /  3.9 °C 30.14in /  1020.5hPa Calm     73.2% 0.00in /  0mm 0 W/m2
03:14 47.2 °F /  8.4 °C 39.3 °F /  4.1 °C 30.15in /  1020.9hPa Calm     74% 0.00in /  0mm 0 W/m2
03:19 47 °F /  8.3 °C 39.2 °F /  4 °C 30.15in /  1020.9hPa Calm     74% 0.00in /  0mm 0 W/m2
03:24 46.9 °F /  8.3 °C 39 °F /  3.9 °C 30.15in /  1020.9hPa Calm     74% 0.00in /  0mm 0 W/m2
03:29 46.7 °F /  8.2 °C 39 °F /  3.9 °C 30.15in /  1020.9hPa Calm     74.4% 0.00in /  0mm 0 W/m2
03:34 46.5 °F /  8.1 °C 39.1 °F /  3.9 °C 30.15in /  1020.9hPa Calm     75.2% 0.00in /  0mm 0 W/m2
03:39 46.3 °F /  7.9 °C 39.3 °F /  4.1 °C 30.15in /  1020.9hPa Calm     76.3% 0.00in /  0mm 0 W/m2
03:44 46.3 °F /  7.9 °C 39.6 °F /  4.2 °C 30.15in /  1020.9hPa Calm     77.3% 0.00in /  0mm 0 W/m2
03:49 46.2 °F /  7.9 °C 39.8 °F /  4.3 °C 30.15in /  1020.9hPa Calm     78.3% 0.00in /  0mm 0 W/m2
03:54 46.1 °F /  7.8 °C 40 °F /  4.4 °C 30.15in /  1020.9hPa Calm     79% 0.00in /  0mm 0 W/m2
03:59 46.1 °F /  7.8 °C 39.9 °F /  4.4 °C 30.15in /  1020.9hPa Calm     79.1% 0.00in /  0mm 0 W/m2
04:00 46.1 °F /  7.8 °C 40.3 °F /  4.6 °C 30.15in /  1020.9hPa Calm     80% 0.00in /  0mm 0 W/m2
04:09 45.9 °F /  7.7 °C 40.1 °F /  4.5 °C 30.15in /  1020.9hPa Calm     80% 0.00in /  0mm 0 W/m2
04:14 45.9 °F /  7.7 °C 40.4 °F /  4.7 °C 30.15in /  1020.9hPa Calm     81% 0.00in /  0mm 0 W/m2
04:19 45.8 °F /  7.7 °C 40.3 °F /  4.6 °C 30.15in /  1020.9hPa Calm     81% 0.00in /  0mm 0 W/m2
04:24 45.6 °F /  7.6 °C 40.2 °F /  4.6 °C 30.15in /  1020.9hPa Calm     81% 0.00in /  0mm 0 W/m2
04:29 45.4 °F /  7.4 °C 39.9 °F /  4.4 °C 30.15in /  1020.9hPa Calm     81% 0.00in /  0mm 0 W/m2
04:34 45 °F /  7.2 °C 39.6 °F /  4.2 °C 30.15in /  1020.9hPa Calm     81% 0.00in /  0mm 0 W/m2
04:39 44.7 °F /  7.1 °C 39.3 °F /  4.1 °C 30.16in /  1021.2hPa Calm     81% 0.00in /  0mm 0 W/m2
04:44 44.5 °F /  6.9 °C 39.3 °F /  4.1 °C 30.15in /  1020.9hPa Calm     81.7% 0.00in /  0mm 0 W/m2
04:49 44.4 °F /  6.9 °C 39.2 °F /  4 °C 30.15in /  1020.9hPa Calm     82% 0.00in /  0mm 0 W/m2
04:54 44.3 °F /  6.8 °C 39.2 °F /  4 °C 30.15in /  1020.9hPa Calm     82.3% 0.00in /  0mm 0 W/m2
04:59 44.2 °F /  6.8 °C 39.4 °F /  4.1 °C 30.16in /  1021.2hPa Calm     83% 0.00in /  0mm 0 W/m2
05:04 44.2 °F /  6.8 °C 39.6 °F /  4.2 °C 30.15in /  1020.9hPa Calm     83.9% 0.00in /  0mm 0 W/m2
05:09 44.1 °F /  6.7 °C 39.6 °F /  4.2 °C 30.15in /  1020.9hPa Calm     84% 0.00in /  0mm 0 W/m2
05:14 44 °F /  6.7 °C 39.4 °F /  4.1 °C 30.16in /  1021.2hPa Calm     84% 0.00in /  0mm 0 W/m2
05:19 43.8 °F /  6.6 °C 39.3 °F /  4.1 °C 30.16in /  1021.2hPa Calm     84% 0.00in /  0mm 0 W/m2
05:24 43.6 °F /  6.4 °C 39.1 °F /  3.9 °C 30.16in /  1021.2hPa Calm     84% 0.00in /  0mm 0 W/m2
05:29 43.5 °F /  6.4 °C 39 °F /  3.9 °C 30.16in /  1021.2hPa Calm     84% 0.00in /  0mm 0 W/m2
05:34 43.4 °F /  6.3 °C 38.9 °F /  3.8 °C 30.15in /  1020.9hPa Calm     84% 0.00in /  0mm 0 W/m2
05:39 43.4 °F /  6.3 °C 38.9 °F /  3.8 °C 30.16in /  1021.2hPa Calm     84% 0.00in /  0mm 5 W/m2
05:44 43.3 °F /  6.3 °C 38.8 °F /  3.8 °C 30.16in /  1021.2hPa Calm     84% 0.00in /  0mm 9 W/m2
05:49 43.2 °F /  6.2 °C 38.7 °F /  3.7 °C 30.16in /  1021.2hPa Calm     84% 0.00in /  0mm 11 W/m2
05:54 43.2 °F /  6.2 °C 38.7 °F /  3.7 °C 30.16in /  1021.2hPa Calm     84% 0.00in /  0mm 14 W/m2
05:59 43.2 °F /  6.2 °C 38.7 °F /  3.7 °C 30.16in /  1021.2hPa Calm     84% 0.00in /  0mm 18 W/m2
06:04 43.2 °F /  6.2 °C 38.7 °F /  3.7 °C 30.16in /  1021.2hPa Calm     84% 0.00in /  0mm 21 W/m2
06:09 43.2 °F /  6.2 °C 38.7 °F /  3.7 °C 30.16in /  1021.2hPa Calm     84.1% 0.00in /  0mm 25 W/m2
06:14 43.2 °F /  6.2 °C 39 °F /  3.9 °C 30.16in /  1021.2hPa Calm     85% 0.00in /  0mm 30 W/m2
06:19 43.3 °F /  6.3 °C 39.3 °F /  4.1 °C 30.16in /  1021.2hPa Calm     85.6% 0.00in /  0mm 39 W/m2
06:24 43.4 °F /  6.3 °C 39.2 °F /  4 °C 30.17in /  1021.6hPa Calm     85% 0.00in /  0mm 46 W/m2
06:29 43.5 °F /  6.4 °C 39.3 °F /  4.1 °C 30.17in /  1021.6hPa Calm     85% 0.00in /  0mm 58 W/m2
06:34 43.7 °F /  6.5 °C 39.8 °F /  4.3 °C 30.17in /  1021.6hPa Calm     85.9% 0.00in /  0mm 70 W/m2
06:39 44 °F /  6.7 °C 40.1 °F /  4.5 °C 30.17in /  1021.6hPa Calm     86% 0.00in /  0mm 77 W/m2
06:44 44.6 °F /  7 °C 40.7 °F /  4.8 °C 30.17in /  1021.6hPa Calm     86% 0.00in /  0mm 102 W/m2
06:49 45.4 °F /  7.4 °C 41.5 °F /  5.3 °C 30.17in /  1021.6hPa Calm     86% 0.00in /  0mm 181 W/m2
06:54 46.4 °F /  8 °C 42.3 °F /  5.7 °C 30.17in /  1021.6hPa Calm     85.5% 0.00in /  0mm 220 W/m2
06:59 47.6 °F /  8.7 °C 42.8 °F /  6 °C 30.17in /  1021.6hPa Calm     83.4% 0.00in /  0mm 236 W/m2
07:04 48.8 °F /  9.3 °C 43.1 °F /  6.2 °C 30.17in /  1021.6hPa Calm     80.4% 0.00in /  0mm 253 W/m2
07:09 50.1 °F /  10.1 °C 43.3 °F /  6.3 °C 30.17in /  1021.6hPa Calm     77.3% 0.00in /  0mm 271 W/m2
07:14 51.4 °F /  10.8 °C 43.9 °F /  6.6 °C 30.17in /  1021.6hPa Calm     75.5% 0.00in /  0mm 288 W/m2
07:19 52.5 °F /  11.4 °C 44.4 °F /  6.9 °C 30.17in /  1021.6hPa Calm     73.8% 0.00in /  0mm 302 W/m2
07:24 53.4 °F /  11.9 °C 44.8 °F /  7.1 °C 30.17in /  1021.6hPa Calm     72.6% 0.00in /  0mm 320 W/m2
07:29 54.3 °F /  12.4 °C 45.1 °F /  7.3 °C 30.17in /  1021.6hPa Calm     71.1% 0.00in /  0mm 339 W/m2
07:34 55.2 °F /  12.9 °C 45.9 °F /  7.7 °C 30.17in /  1021.6hPa Calm     70.8% 0.00in /  0mm 355 W/m2
07:39 56 °F /  13.3 °C 46 °F /  7.8 °C 30.17in /  1021.6hPa Calm     69.1% 0.00in /  0mm 374 W/m2
07:44 56.9 °F /  13.8 °C 46.1 °F /  7.8 °C 30.17in /  1021.6hPa Calm     67.2% 0.00in /  0mm 392 W/m2
07:49 57.7 °F /  14.3 °C 46.2 °F /  7.9 °C 30.17in /  1021.6hPa Calm     65.6% 0.00in /  0mm 410 W/m2
07:54 58.3 °F /  14.6 °C 46.3 °F /  7.9 °C 30.17in /  1021.6hPa Calm     64.1% 0.00in /  0mm 427 W/m2
07:59 58.9 °F /  14.9 °C 46.2 °F /  7.9 °C 30.17in /  1021.6hPa Calm     62.8% 0.00in /  0mm 441 W/m2
08:00 59.2 °F /  15.1 °C 46.2 °F /  7.9 °C 30.17in /  1021.6hPa Calm     62% 0.00in /  0mm 443 W/m2
08:09 60 °F /  15.6 °C 46.1 °F /  7.8 °C 30.18in /  1021.9hPa Calm     59.9% 0.00in /  0mm 476 W/m2
08:14 60.5 °F /  15.8 °C 45.4 °F /  7.4 °C 30.18in /  1021.9hPa Calm     57.5% 0.00in /  0mm 492 W/m2
08:19 61 °F /  16.1 °C 45.3 °F /  7.4 °C 30.18in /  1021.9hPa Calm     56.1% 0.00in /  0mm 508 W/m2
08:24 61.6 °F /  16.4 °C 44.9 °F /  7.2 °C 30.18in /  1021.9hPa Calm     54.3% 0.00in /  0mm 527 W/m2
08:29 62 °F /  16.7 °C 44.5 °F /  6.9 °C 30.18in /  1021.9hPa Calm     52.6% 0.00in /  0mm 545 W/m2
08:34 62.4 °F /  16.9 °C 45.9 °F /  7.7 °C 30.18in /  1021.9hPa Calm     54.7% 0.00in /  0mm 557 W/m2
08:39 62.8 °F /  17.1 °C 45.3 °F /  7.4 °C 30.18in /  1021.9hPa Calm     52.7% 0.00in /  0mm 573 W/m2
08:44 63.2 °F /  17.3 °C 44.8 °F /  7.1 °C 30.18in /  1021.9hPa Calm     51.2% 0.00in /  0mm 591 W/m2
08:49 63.6 °F /  17.6 °C 45.6 °F /  7.6 °C 30.18in /  1021.9hPa Calm     51.9% 0.00in /  0mm 606 W/m2
08:54 64 °F /  17.8 °C 45.3 °F /  7.4 °C 30.18in /  1021.9hPa Calm     50.7% 0.00in /  0mm 621 W/m2
08:59 64.3 °F /  17.9 °C 45 °F /  7.2 °C 30.18in /  1021.9hPa Calm     49.5% 0.00in /  0mm 638 W/m2
09:04 64.4 °F /  18 °C 44.5 °F /  6.9 °C 30.18in /  1021.9hPa Calm     48.3% 0.00in /  0mm 654 W/m2
09:09 64.9 °F /  18.3 °C 45.3 °F /  7.4 °C 30.18in /  1021.9hPa Calm     49% 0.00in /  0mm 666 W/m2
09:14 65.3 °F /  18.5 °C 44.7 °F /  7.1 °C 30.18in /  1021.9hPa Calm     47.3% 0.00in /  0mm 680 W/m2
09:19 65.8 °F /  18.8 °C 44.5 °F /  6.9 °C 30.18in /  1021.9hPa Calm     46.1% 0.00in /  0mm 696 W/m2
09:24 66.4 °F /  19.1 °C 44.6 °F /  7 °C 30.18in /  1021.9hPa Calm     45.3% 0.00in /  0mm 712 W/m2
09:29 66.9 °F /  19.4 °C 45 °F /  7.2 °C 30.18in /  1021.9hPa Calm     45.2% 0.00in /  0mm 726 W/m2
09:34 67.2 °F /  19.6 °C 43.6 °F /  6.4 °C 30.18in /  1021.9hPa Calm     42.4% 0.00in /  0mm 740 W/m2
09:39 67.4 °F /  19.7 °C 44.4 °F /  6.9 °C 30.18in /  1021.9hPa Calm     43.5% 0.00in /  0mm 752 W/m2
09:44 67.4 °F /  19.7 °C 43.9 °F /  6.6 °C 30.18in /  1021.9hPa Calm     42.6% 0.00in /  0mm 765 W/m2
09:49 67.6 °F /  19.8 °C 43.8 °F /  6.6 °C 30.18in /  1021.9hPa Calm     42.2% 0.00in /  0mm 780 W/m2
09:54 68 °F /  20 °C 45.1 °F /  7.3 °C 30.17in /  1021.6hPa Calm     43.8% 0.00in /  0mm 786 W/m2
09:59 68.3 °F /  20.2 °C 42.8 °F /  6 °C 30.17in /  1021.6hPa Calm   1mph /  1.6km/h 39.6% 0.00in /  0mm 802 W/m2
10:04 68.2 °F /  20.1 °C 43.4 °F /  6.3 °C 30.17in /  1021.6hPa NNE 0.1mph /  0.2km/h 2mph /  3.2km/h 40.5% 0.00in /  0mm 816 W/m2
10:09 68.6 °F /  20.3 °C 43.4 °F /  6.3 °C 30.17in /  1021.6hPa Calm   2mph /  3.2km/h 40.1% 0.00in /  0mm 826 W/m2
10:14 68.9 °F /  20.5 °C 42.5 °F /  5.8 °C 30.17in /  1021.6hPa NNE 0.2mph /  0.3km/h 2mph /  3.2km/h 38.3% 0.00in /  0mm 835 W/m2
10:19 69.3 °F /  20.7 °C 42.6 °F /  5.9 °C 30.17in /  1021.6hPa NNW 0.5mph /  0.8km/h 6mph /  9.7km/h 38% 0.00in /  0mm 846 W/m2
10:24 69.7 °F /  20.9 °C 41.6 °F /  5.3 °C 30.17in /  1021.6hPa NNW 0.5mph /  0.8km/h 6mph /  9.7km/h 36% 0.00in /  0mm 854 W/m2
10:29 70 °F /  21.1 °C 41.3 °F /  5.2 °C 30.17in /  1021.6hPa Calm   6mph /  9.7km/h 35.3% 0.00in /  0mm 874 W/m2
10:34 70.2 °F /  21.2 °C 40.3 °F /  4.6 °C 30.17in /  1021.6hPa ENE 0.6mph /  1km/h 6mph /  9.7km/h 33.7% 0.00in /  0mm 884 W/m2
10:39 70.2 °F /  21.2 °C 40.2 °F /  4.6 °C 30.17in /  1021.6hPa East 0.7mph /  1.1km/h 5mph /  8km/h 33.5% 0.00in /  0mm 909 W/m2
10:44 69.9 °F /  21.1 °C 39.2 °F /  4 °C 30.17in /  1021.6hPa East 1.1mph /  1.8km/h 5mph /  8km/h 32.6% 0.00in /  0mm 926 W/m2
10:49 69.7 °F /  20.9 °C 39.5 °F /  4.2 °C 30.17in /  1021.6hPa ENE 1.7mph /  2.7km/h 6mph /  9.7km/h 33.2% 0.00in /  0mm 933 W/m2
10:54 70.3 °F /  21.3 °C 39.6 °F /  4.2 °C 30.17in /  1021.6hPa ENE 0.7mph /  1.1km/h 6mph /  9.7km/h 32.8% 0.00in /  0mm 986 W/m2
10:59 70 °F /  21.1 °C 37.8 °F /  3.2 °C 30.17in /  1021.6hPa ENE 0.3mph /  0.5km/h 6mph /  9.7km/h 30.8% 0.00in /  0mm 1100 W/m2
11:04 69.8 °F /  21 °C 39.3 °F /  4.1 °C 30.17in /  1021.6hPa ENE 0.2mph /  0.3km/h 6mph /  9.7km/h 32.8% 0.00in /  0mm 1172 W/m2
11:09 69.7 °F /  20.9 °C 37.3 °F /  2.9 °C 30.17in /  1021.6hPa ENE 0.1mph /  0.2km/h 3mph /  4.8km/h 30.5% 0.00in /  0mm 1172 W/m2
11:14 69.5 °F /  20.8 °C 39.9 °F /  4.4 °C 30.16in /  1021.2hPa Calm   3mph /  4.8km/h 34% 0.00in /  0mm 390 W/m2
11:19 69.3 °F /  20.7 °C 39.6 °F /  4.2 °C 30.17in /  1021.6hPa Calm   3mph /  4.8km/h 33.9% 0.00in /  0mm 309 W/m2
11:24 69 °F /  20.6 °C 39.4 °F /  4.1 °C 30.17in /  1021.6hPa Calm   3mph /  4.8km/h 33.9% 0.00in /  0mm 297 W/m2
11:29 68.6 °F /  20.3 °C 40.3 °F /  4.6 °C 30.16in /  1021.2hPa ENE 0.2mph /  0.3km/h 3mph /  4.8km/h 35.5% 0.00in /  0mm 220 W/m2
11:34 68.1 °F /  20.1 °C 38.3 °F /  3.5 °C 30.16in /  1021.2hPa Calm   3mph /  4.8km/h 33.5% 0.00in /  0mm 260 W/m2
11:39 67.6 °F /  19.8 °C 39.6 °F /  4.2 °C 30.16in /  1021.2hPa Calm   1mph /  1.6km/h 35.9% 0.00in /  0mm 294 W/m2
11:44 67.3 °F /  19.6 °C 39.1 °F /  3.9 °C 30.16in /  1021.2hPa Calm   1mph /  1.6km/h 35.5% 0.00in /  0mm 336 W/m2
11:49 67.2 °F /  19.6 °C 39 °F /  3.9 °C 30.16in /  1021.2hPa NNE 0.4mph /  0.6km/h 5mph /  8km/h 35.5% 0.00in /  0mm 436 W/m2
11:54 67.1 °F /  19.5 °C 39.5 °F /  4.2 °C 30.16in /  1021.2hPa NNE 0.1mph /  0.2km/h 5mph /  8km/h 36.3% 0.00in /  0mm 436 W/m2
11:59 66.9 °F /  19.4 °C 38.3 °F /  3.5 °C 30.16in /  1021.2hPa NNE 0.5mph /  0.8km/h 5mph /  8km/h 34.9% 0.00in /  0mm 427 W/m2
12:00 66.9 °F /  19.4 °C 38.4 °F /  3.6 °C 30.16in /  1021.2hPa Calm   5mph /  8km/h 35% 0.00in /  0mm 309 W/m2
12:09 67 °F /  19.4 °C 37.2 °F /  2.9 °C 30.16in /  1021.2hPa Calm     33.2% 0.00in /  0mm 396 W/m2
12:14 67 °F /  19.4 °C 37.5 °F /  3.1 °C 30.16in /  1021.2hPa Calm     33.6% 0.00in /  0mm 793 W/m2
12:19 67.4 °F /  19.7 °C 38.6 °F /  3.7 °C 30.16in /  1021.2hPa North 1.3mph /  2.1km/h 4mph /  6.4km/h 34.7% 0.00in /  0mm 1352 W/m2
12:24 68.3 °F /  20.2 °C 38.2 °F /  3.4 °C 30.15in /  1020.9hPa North 1.4mph /  2.3km/h 5mph /  8km/h 33.1% 0.00in /  0mm 1292 W/m2
12:29 68.7 °F /  20.4 °C 37.6 °F /  3.1 °C 30.15in /  1020.9hPa NNW 0.1mph /  0.2km/h 5mph /  8km/h 32% 0.00in /  0mm 401 W/m2
12:34 68.7 °F /  20.4 °C 37.1 °F /  2.8 °C 30.15in /  1020.9hPa Calm   5mph /  8km/h 31.3% 0.00in /  0mm 367 W/m2
12:39 68.5 °F /  20.3 °C 37.4 °F /  3 °C 30.15in /  1020.9hPa Calm     31.9% 0.00in /  0mm 341 W/m2
12:44 68.4 °F /  20.2 °C 36.3 °F /  2.4 °C 30.15in /  1020.9hPa Calm     30.6% 0.00in /  0mm 350 W/m2
12:49 68.3 °F /  20.2 °C 38.6 °F /  3.7 °C 30.15in /  1020.9hPa NNW 0.3mph /  0.5km/h 5mph /  8km/h 33.7% 0.00in /  0mm 350 W/m2
12:54 68.2 °F /  20.1 °C 37 °F /  2.8 °C 30.14in /  1020.5hPa NNE 0.5mph /  0.8km/h 5mph /  8km/h 31.7% 0.00in /  0mm 777 W/m2
12:59 68.1 °F /  20.1 °C 37.9 °F /  3.3 °C 30.14in /  1020.5hPa ENE 0.1mph /  0.2km/h 5mph /  8km/h 33% 0.00in /  0mm 898 W/m2
13:04 68.6 °F /  20.3 °C 40.1 °F /  4.5 °C 30.14in /  1020.5hPa ENE 0.7mph /  1.1km/h 6mph /  9.7km/h 35.5% 0.00in /  0mm 1114 W/m2
13:09 69.2 °F /  20.7 °C 39.1 °F /  3.9 °C 30.14in /  1020.5hPa NE 1.5mph /  2.4km/h 9mph /  14.5km/h 33.3% 0.00in /  0mm 1074 W/m2
13:14 70 °F /  21.1 °C 38.4 °F /  3.6 °C 30.14in /  1020.5hPa NNE 1.1mph /  1.8km/h 9mph /  14.5km/h 31.6% 0.00in /  0mm 1056 W/m2
13:19 70.4 °F /  21.3 °C 37.2 °F /  2.9 °C 30.14in /  1020.5hPa ENE 0.3mph /  0.5km/h 9mph /  14.5km/h 29.6% 0.00in /  0mm 1090 W/m2
13:24 70.4 °F /  21.3 °C 39.7 °F /  4.3 °C 30.14in /  1020.5hPa ENE 0.2mph /  0.3km/h 9mph /  14.5km/h 32.7% 0.00in /  0mm 1185 W/m2
13:29 70.6 °F /  21.4 °C 40.1 °F /  4.5 °C 30.14in /  1020.5hPa ENE 0.1mph /  0.2km/h 9mph /  14.5km/h 33% 0.00in /  0mm 1185 W/m2
13:34 70.5 °F /  21.4 °C 38.9 °F /  3.8 °C 30.14in /  1020.5hPa ENE 0.4mph /  0.6km/h 9mph /  14.5km/h 31.6% 0.00in /  0mm 239 W/m2
13:39 70.1 °F /  21.2 °C 37.7 °F /  3.2 °C 30.14in /  1020.5hPa Calm   3mph /  4.8km/h 30.6% 0.00in /  0mm 211 W/m2
13:44 69.5 °F /  20.8 °C 38.1 °F /  3.4 °C 30.14in /  1020.5hPa ENE 0.2mph /  0.3km/h 4mph /  6.4km/h 31.6% 0.00in /  0mm 271 W/m2
13:49 69.2 °F /  20.7 °C 37.6 °F /  3.1 °C 30.13in /  1020.2hPa Calm   4mph /  6.4km/h 31.3% 0.00in /  0mm 352 W/m2
13:54 69.2 °F /  20.7 °C 39.4 °F /  4.1 °C 30.13in /  1020.2hPa NW 1.5mph /  2.4km/h 7mph /  11.3km/h 33.6% 0.00in /  0mm 1176 W/m2
13:59 69.6 °F /  20.9 °C 38.4 °F /  3.6 °C 30.13in /  1020.2hPa West 0.4mph /  0.6km/h 7mph /  11.3km/h 31.9% 0.00in /  0mm 1176 W/m2
14:04 69.8 °F /  21 °C 36.6 °F /  2.6 °C 30.13in /  1020.2hPa Calm   7mph /  11.3km/h 29.5% 0.00in /  0mm 295 W/m2
14:09 69.9 °F /  21.1 °C 37.3 °F /  2.9 °C 30.13in /  1020.2hPa Calm   1mph /  1.6km/h 30.3% 0.00in /  0mm 679 W/m2
14:14 70.1 °F /  21.2 °C 37.5 °F /  3.1 °C 30.13in /  1020.2hPa NW 0.8mph /  1.3km/h 5mph /  8km/h 30.3% 0.00in /  0mm 1260 W/m2
14:19 70.5 °F /  21.4 °C 37.1 °F /  2.8 °C 30.13in /  1020.2hPa North 0.6mph /  1km/h 6mph /  9.7km/h 29.5% 0.00in /  0mm 983 W/m2
14:24 70.5 °F /  21.4 °C 35.7 °F /  2.1 °C 30.12in /  1019.9hPa Calm   6mph /  9.7km/h 27.8% 0.00in /  0mm 325 W/m2
14:29 70.4 °F /  21.3 °C 36.4 °F /  2.4 °C 30.12in /  1019.9hPa NNW 0.4mph /  0.6km/h 6mph /  9.7km/h 28.8% 0.00in /  0mm 1092 W/m2
14:34 70.2 °F /  21.2 °C 37.1 °F /  2.8 °C 30.12in /  1019.9hPa NNE 0.9mph /  1.4km/h 6mph /  9.7km/h 29.7% 0.00in /  0mm 1092 W/m2
14:39 70.6 °F /  21.4 °C 35.7 °F /  2.1 °C 30.12in /  1019.9hPa WNW 1.2mph /  1.9km/h 5mph /  8km/h 27.7% 0.00in /  0mm 1071 W/m2
14:43 70.9 °F /  21.6 °C 35.3 °F /  1.8 °C 30.11in /  1019.5hPa WNW 2.4mph /  3.9km/h 5mph /  8km/h 27.1% 0.00in /  0mm 1125 W/m2
14:49 70.5 °F /  21.4 °C 33.8 °F /  1 °C 30.11in /  1019.5hPa East 1.7mph /  2.7km/h 5mph /  8km/h 25.8% 0.00in /  0mm 1125 W/m2
14:54 70.3 °F /  21.3 °C 34.7 °F /  1.5 °C 30.11in /  1019.5hPa ENE 0.1mph /  0.2km/h 5mph /  8km/h 26.9% 0.00in /  0mm 1102 W/m2
14:59 70.2 °F /  21.2 °C 35.7 °F /  2.1 °C 30.11in /  1019.5hPa ENE 0.3mph /  0.5km/h 5mph /  8km/h 28.2% 0.00in /  0mm 253 W/m2
15:04 70.1 °F /  21.2 °C 34.2 °F /  1.2 °C 30.11in /  1019.5hPa NE 0.2mph /  0.3km/h 5mph /  8km/h 26.7% 0.00in /  0mm 1134 W/m2
15:09 70 °F /  21.1 °C 35.8 °F /  2.1 °C 30.11in /  1019.5hPa NE 0.1mph /  0.2km/h 2mph /  3.2km/h 28.5% 0.00in /  0mm 963 W/m2
15:14 70.3 °F /  21.3 °C 36.9 °F /  2.7 °C 30.11in /  1019.5hPa NW 0.5mph /  0.8km/h 5mph /  8km/h 29.4% 0.00in /  0mm 909 W/m2
15:19 70.8 °F /  21.6 °C 38.2 °F /  3.4 °C 30.11in /  1019.5hPa West 1.2mph /  1.9km/h 6mph /  9.7km/h 30.4% 0.00in /  0mm 327 W/m2
15:24 71.1 °F /  21.7 °C 38 °F /  3.3 °C 30.11in /  1019.5hPa WNW 2.6mph /  4.2km/h 9mph /  14.5km/h 29.9% 0.00in /  0mm 265 W/m2
15:29 70.9 °F /  21.6 °C 34.7 °F /  1.5 °C 30.11in /  1019.5hPa WNW 1mph /  1.6km/h 9mph /  14.5km/h 26.4% 0.00in /  0mm 204 W/m2
15:34 70.5 °F /  21.4 °C 35.5 °F /  1.9 °C 30.10in /  1019.2hPa WNW 0.2mph /  0.3km/h 9mph /  14.5km/h 27.6% 0.00in /  0mm 179 W/m2
15:39 70.1 °F /  21.2 °C 36.4 °F /  2.4 °C 30.10in /  1019.2hPa Calm   2mph /  3.2km/h 29.1% 0.00in /  0mm 847 W/m2
15:44 70.2 °F /  21.2 °C 36.8 °F /  2.7 °C 30.10in /  1019.2hPa WNW 1.1mph /  1.8km/h 5mph /  8km/h 29.4% 0.00in /  0mm 909 W/m2
15:49 70.6 °F /  21.4 °C 36.1 °F /  2.3 °C 30.10in /  1019.2hPa WNW 1.3mph /  2.1km/h 5mph /  8km/h 28.1% 0.00in /  0mm 923 W/m2
15:54 71.1 °F /  21.7 °C 37.1 °F /  2.8 °C 30.10in /  1019.2hPa Calm   5mph /  8km/h 28.8% 0.00in /  0mm 598 W/m2
15:59 71.4 °F /  21.9 °C 35.5 °F /  1.9 °C 30.10in /  1019.2hPa WNW 0.5mph /  0.8km/h 5mph /  8km/h 26.8% 0.00in /  0mm 914 W/m2
16:09 72.1 °F /  22.3 °C 37.1 °F /  2.8 °C 30.09in /  1018.8hPa West 0.9mph /  1.4km/h 5mph /  8km/h 27.9% 0.00in /  0mm 947 W/m2
16:14 72.3 °F /  22.4 °C 36.2 °F /  2.3 °C 30.09in /  1018.8hPa WNW 3.1mph /  5km/h 7mph /  11.3km/h 26.8% 0.00in /  0mm 332 W/m2
16:19 72.1 °F /  22.3 °C 36.3 °F /  2.4 °C 30.09in /  1018.8hPa NW 1.5mph /  2.4km/h 7mph /  11.3km/h 27% 0.00in /  0mm 257 W/m2
16:24 71.7 °F /  22.1 °C 34.7 °F /  1.5 °C 30.09in /  1018.8hPa West 0.5mph /  0.8km/h 7mph /  11.3km/h 25.7% 0.00in /  0mm 206 W/m2
16:29 71.2 °F /  21.8 °C 36.6 °F /  2.6 °C 30.09in /  1018.8hPa Calm   7mph /  11.3km/h 28.1% 0.00in /  0mm 176 W/m2
16:34 70.9 °F /  21.6 °C 36.6 °F /  2.6 °C 30.09in /  1018.8hPa West 0.3mph /  0.5km/h 7mph /  11.3km/h 28.4% 0.00in /  0mm 148 W/m2
16:39 70.6 °F /  21.4 °C 35.8 °F /  2.1 °C 30.09in /  1018.8hPa WNW 0.6mph /  1km/h 5mph /  8km/h 27.9% 0.00in /  0mm 151 W/m2
16:44 70.3 °F /  21.3 °C 35.9 °F /  2.2 °C 30.09in /  1018.8hPa WNW 0.7mph /  1.1km/h 5mph /  8km/h 28.3% 0.00in /  0mm 158 W/m2
16:49 69.9 °F /  21.1 °C 35.8 °F /  2.1 °C 30.09in /  1018.8hPa WNW 0.1mph /  0.2km/h 5mph /  8km/h 28.5% 0.00in /  0mm 160 W/m2
16:54 69.7 °F /  20.9 °C 36.8 °F /  2.7 °C 30.09in /  1018.8hPa Calm   5mph /  8km/h 29.9% 0.00in /  0mm 162 W/m2
16:59 69.5 °F /  20.8 °C 36.4 °F /  2.4 °C 30.09in /  1018.8hPa NW 1mph /  1.6km/h 6mph /  9.7km/h 29.6% 0.00in /  0mm 148 W/m2
17:04 69.5 °F /  20.8 °C 35.7 °F /  2.1 °C 30.09in /  1018.8hPa NW 0.6mph /  1km/h 6mph /  9.7km/h 28.8% 0.00in /  0mm 139 W/m2
17:09 69.5 °F /  20.8 °C 34.7 °F /  1.5 °C 30.09in /  1018.8hPa Calm   4mph /  6.4km/h 27.7% 0.00in /  0mm 93 W/m2
17:14 69.7 °F /  20.9 °C 35.6 °F /  2 °C 30.09in /  1018.8hPa NW 0.7mph /  1.1km/h 4mph /  6.4km/h 28.5% 0.00in /  0mm 83 W/m2
17:19 69.7 °F /  20.9 °C 36.3 °F /  2.4 °C 30.09in /  1018.8hPa NW 0.1mph /  0.2km/h 4mph /  6.4km/h 29.3% 0.00in /  0mm 70 W/m2
17:24 69.8 °F /  21 °C 34.7 °F /  1.5 °C 30.09in /  1018.8hPa NW 1.3mph /  2.1km/h 4mph /  6.4km/h 27.4% 0.00in /  0mm 56 W/m2
17:29 69.8 °F /  21 °C 34.3 °F /  1.3 °C 30.09in /  1018.8hPa Calm   4mph /  6.4km/h 27% 0.00in /  0mm 40 W/m2
17:34 69.8 °F /  21 °C 35.1 °F /  1.7 °C 30.09in /  1018.8hPa Calm   4mph /  6.4km/h 27.8% 0.00in /  0mm 47 W/m2
17:39 69.6 °F /  20.9 °C 34 °F /  1.1 °C 30.09in /  1018.8hPa Calm     26.8% 0.00in /  0mm 53 W/m2
17:44 69.3 °F /  20.7 °C 34.1 °F /  1.2 °C 30.09in /  1018.8hPa Calm     27.2% 0.00in /  0mm 51 W/m2
17:49 69.1 °F /  20.6 °C 33.7 °F /  0.9 °C 30.09in /  1018.8hPa NW 0.3mph /  0.5km/h 3mph /  4.8km/h 27% 0.00in /  0mm 53 W/m2
17:54 68.9 °F /  20.5 °C 33.1 °F /  0.6 °C 30.09in /  1018.8hPa Calm   3mph /  4.8km/h 26.6% 0.00in /  0mm 53 W/m2
17:59 68.8 °F /  20.4 °C 35.2 °F /  1.8 °C 30.09in /  1018.8hPa Calm   3mph /  4.8km/h 28.9% 0.00in /  0mm 49 W/m2
18:04 68.8 °F /  20.4 °C 34.8 °F /  1.6 °C 30.09in /  1018.8hPa Calm   3mph /  4.8km/h 28.5% 0.00in /  0mm 49 W/m2
18:09 68.9 °F /  20.5 °C 35.5 °F /  1.9 °C 30.09in /  1018.8hPa NW 0.6mph /  1km/h 5mph /  8km/h 29.2% 0.00in /  0mm 49 W/m2
18:14 68.9 °F /  20.5 °C 33.2 °F /  0.7 °C 30.09in /  1018.8hPa Calm   5mph /  8km/h 26.6% 0.00in /  0mm 49 W/m2
18:19 68.9 °F /  20.5 °C 34.2 °F /  1.2 °C 30.08in /  1018.5hPa Calm   5mph /  8km/h 27.7% 0.00in /  0mm 44 W/m2
18:24 68.9 °F /  20.5 °C 35.6 °F /  2 °C 30.09in /  1018.8hPa NW 0.4mph /  0.6km/h 5mph /  8km/h 29.3% 0.00in /  0mm 42 W/m2
18:29 68.9 °F /  20.5 °C 35.2 °F /  1.8 °C 30.09in /  1018.8hPa NW 0.4mph /  0.6km/h 5mph /  8km/h 28.8% 0.00in /  0mm 42 W/m2
18:34 68.8 °F /  20.4 °C 34.5 °F /  1.4 °C 30.09in /  1018.8hPa Calm   5mph /  8km/h 28.1% 0.00in /  0mm 42 W/m2
18:39 68.8 °F /  20.4 °C 35.6 °F /  2 °C 30.09in /  1018.8hPa Calm   1mph /  1.6km/h 29.5% 0.00in /  0mm 35 W/m2
18:44 68.6 °F /  20.3 °C 35.3 °F /  1.8 °C 30.09in /  1018.8hPa NW 0.2mph /  0.3km/h 3mph /  4.8km/h 29.1% 0.00in /  0mm 35 W/m2
18:49 68.5 °F /  20.3 °C 34.3 °F /  1.3 °C 30.09in /  1018.8hPa NW 0.2mph /  0.3km/h 3mph /  4.8km/h 28.2% 0.00in /  0mm 33 W/m2
18:54 68.3 °F /  20.2 °C 33.3 °F /  0.7 °C 30.09in /  1018.8hPa Calm   3mph /  4.8km/h 27.3% 0.00in /  0mm 30 W/m2
18:59 68.1 °F /  20.1 °C 34.7 °F /  1.5 °C 30.09in /  1018.8hPa Calm   3mph /  4.8km/h 29% 0.00in /  0mm 26 W/m2
19:04 68 °F /  20 °C 35.3 °F /  1.8 °C 30.09in /  1018.8hPa Calm   3mph /  4.8km/h 29.8% 0.00in /  0mm 28 W/m2
19:09 67.8 °F /  19.9 °C 36.5 °F /  2.5 °C 30.09in /  1018.8hPa Calm     31.5% 0.00in /  0mm 26 W/m2
19:14 67.7 °F /  19.8 °C 36.3 °F /  2.4 °C 30.09in /  1018.8hPa Calm     31.4% 0.00in /  0mm 25 W/m2
19:19 67.5 °F /  19.7 °C 36.6 °F /  2.6 °C 30.09in /  1018.8hPa Calm     32% 0.00in /  0mm 25 W/m2
19:24 67.3 °F /  19.6 °C 35.8 °F /  2.1 °C 30.09in /  1018.8hPa Calm     31.2% 0.00in /  0mm 25 W/m2
19:29 67.1 °F /  19.5 °C 35.2 °F /  1.8 °C 30.10in /  1019.2hPa Calm     30.7% 0.00in /  0mm 19 W/m2
19:34 66.9 °F /  19.4 °C 35.6 °F /  2 °C 30.10in /  1019.2hPa Calm     31.4% 0.00in /  0mm 18 W/m2
19:39 66.7 °F /  19.3 °C 35.5 °F /  1.9 °C 30.09in /  1018.8hPa Calm     31.5% 0.00in /  0mm 14 W/m2
19:44 66.5 °F /  19.2 °C 36.3 °F /  2.4 °C 30.10in /  1019.2hPa NW 0.1mph /  0.2km/h 3mph /  4.8km/h 32.6% 0.00in /  0mm 12 W/m2
19:49 66.3 °F /  19.1 °C 37.1 °F /  2.8 °C 30.10in /  1019.2hPa Calm   3mph /  4.8km/h 34.1% 0.00in /  0mm 9 W/m2
19:54 65.9 °F /  18.8 °C 37.5 °F /  3.1 °C 30.10in /  1019.2hPa Calm   3mph /  4.8km/h 35% 0.00in /  0mm 5 W/m2
19:59 65.6 °F /  18.7 °C 37.8 °F /  3.2 °C 30.10in /  1019.2hPa Calm   3mph /  4.8km/h 35.8% 0.00in /  0mm 0 W/m2
20:09 64.8 °F /  18.2 °C 39.6 °F /  4.2 °C 30.10in /  1019.2hPa Calm   1mph /  1.6km/h 39.5% 0.00in /  0mm 0 W/m2
20:14 64.2 °F /  17.9 °C 39.6 °F /  4.2 °C 30.10in /  1019.2hPa Calm   1mph /  1.6km/h 40.3% 0.00in /  0mm 0 W/m2
20:19 63.7 °F /  17.6 °C 39.3 °F /  4.1 °C 30.10in /  1019.2hPa Calm   1mph /  1.6km/h 40.5% 0.00in /  0mm 0 W/m2
20:24 63.2 °F /  17.3 °C 38.1 °F /  3.4 °C 30.10in /  1019.2hPa Calm   1mph /  1.6km/h 39.4% 0.00in /  0mm 0 W/m2
20:29 62.9 °F /  17.2 °C 39.4 °F /  4.1 °C 30.11in /  1019.5hPa Calm   1mph /  1.6km/h 42% 0.00in /  0mm 0 W/m2
20:34 62.3 °F /  16.8 °C 39.9 °F /  4.4 °C 30.11in /  1019.5hPa Calm   1mph /  1.6km/h 43.6% 0.00in /  0mm 0 W/m2
20:39 61.7 °F /  16.5 °C 40.2 °F /  4.6 °C 30.11in /  1019.5hPa Calm     45.1% 0.00in /  0mm 0 W/m2
20:44 61.2 °F /  16.2 °C 40.3 °F /  4.6 °C 30.11in /  1019.5hPa Calm     46% 0.00in /  0mm 0 W/m2
20:49 60.7 °F /  15.9 °C 40.2 °F /  4.6 °C 30.11in /  1019.5hPa Calm     46.7% 0.00in /  0mm 0 W/m2
20:54 60.4 °F /  15.8 °C 40.8 °F /  4.9 °C 30.12in /  1019.9hPa Calm     48.4% 0.00in /  0mm 0 W/m2
20:59 60 °F /  15.6 °C 41.5 °F /  5.3 °C 30.12in /  1019.9hPa Calm     50.2% 0.00in /  0mm 0 W/m2
21:04 59.6 °F /  15.3 °C 41.6 °F /  5.3 °C 30.12in /  1019.9hPa Calm     51.2% 0.00in /  0mm 0 W/m2
21:09 59.2 °F /  15.1 °C 41.4 °F /  5.2 °C 30.12in /  1019.9hPa Calm     51.5% 0.00in /  0mm 0 W/m2
21:14 58.8 °F /  14.9 °C 41.9 °F /  5.5 °C 30.12in /  1019.9hPa Calm     53.4% 0.00in /  0mm 0 W/m2
21:19 58.5 °F /  14.7 °C 42.4 °F /  5.8 °C 30.12in /  1019.9hPa Calm     55% 0.00in /  0mm 0 W/m2
21:24 58.1 °F /  14.5 °C 42.4 °F /  5.8 °C 30.12in /  1019.9hPa Calm     55.8% 0.00in /  0mm 0 W/m2
21:29 57.7 °F /  14.3 °C 42.6 °F /  5.9 °C 30.12in /  1019.9hPa Calm     57.1% 0.00in /  0mm 0 W/m2
21:34 57.2 °F /  14 °C 42.3 °F /  5.7 °C 30.12in /  1019.9hPa Calm     57.4% 0.00in /  0mm 0 W/m2
21:39 56.9 °F /  13.8 °C 41.7 °F /  5.4 °C 30.12in /  1019.9hPa Calm     56.7% 0.00in /  0mm 0 W/m2
21:44 56.6 °F /  13.7 °C 40.4 °F /  4.7 °C 30.12in /  1019.9hPa Calm     54.6% 0.00in /  0mm 0 W/m2
21:49 56.5 °F /  13.6 °C 40 °F /  4.4 °C 30.12in /  1019.9hPa Calm     53.9% 0.00in /  0mm 0 W/m2
21:54 56.4 °F /  13.6 °C 40.3 °F /  4.6 °C 30.13in /  1020.2hPa Calm     54.7% 0.00in /  0mm 0 W/m2
21:59 56.3 °F /  13.5 °C 40.6 °F /  4.8 °C 30.13in /  1020.2hPa Calm     55.5% 0.00in /  0mm 0 W/m2
22:04 56.1 °F /  13.4 °C 39.9 °F /  4.4 °C 30.13in /  1020.2hPa Calm     54.5% 0.00in /  0mm 0 W/m2
22:09 55.9 °F /  13.3 °C 39.3 °F /  4.1 °C 30.13in /  1020.2hPa Calm     53.4% 0.00in /  0mm 0 W/m2
22:14 55.8 °F /  13.2 °C 39.1 °F /  3.9 °C 30.13in /  1020.2hPa Calm     53.4% 0.00in /  0mm 0 W/m2
22:19 55.7 °F /  13.2 °C 39.3 °F /  4.1 °C 30.13in /  1020.2hPa Calm     53.9% 0.00in /  0mm 0 W/m2
22:24 55.6 °F /  13.1 °C 39.5 °F /  4.2 °C 30.13in /  1020.2hPa Calm     54.6% 0.00in /  0mm 0 W/m2
22:29 55.4 °F /  13 °C 39.1 °F /  3.9 °C 30.13in /  1020.2hPa Calm     54% 0.00in /  0mm 0 W/m2
22:34 55.3 °F /  12.9 °C 38.8 °F /  3.8 °C 30.13in /  1020.2hPa Calm     53.7% 0.00in /  0mm 0 W/m2
22:39 55.3 °F /  12.9 °C 39.6 °F /  4.2 °C 30.13in /  1020.2hPa Calm     55.4% 0.00in /  0mm 0 W/m2
22:44 55.1 °F /  12.8 °C 39.7 °F /  4.3 °C 30.13in /  1020.2hPa Calm     56% 0.00in /  0mm 0 W/m2
22:49 54.9 °F /  12.7 °C 38.9 °F /  3.8 °C 30.13in /  1020.2hPa Calm     54.6% 0.00in /  0mm 0 W/m2
22:54 54.7 °F /  12.6 °C 38.9 °F /  3.8 °C 30.14in /  1020.5hPa Calm     55% 0.00in /  0mm 0 W/m2
22:59 54.5 °F /  12.5 °C 38.7 °F /  3.7 °C 30.14in /  1020.5hPa Calm     55% 0.00in /  0mm 0 W/m2
23:04 54.3 °F /  12.4 °C 38.5 °F /  3.6 °C 30.14in /  1020.5hPa Calm     55% 0.00in /  0mm 0 W/m2
23:09 54.1 °F /  12.3 °C 38.7 °F /  3.7 °C 30.14in /  1020.5hPa Calm     55.8% 0.00in /  0mm 0 W/m2
23:14 53.9 °F /  12.2 °C 38.4 °F /  3.6 °C 30.14in /  1020.5hPa Calm     55.6% 0.00in /  0mm 0 W/m2
23:19 53.8 °F /  12.1 °C 38.5 °F /  3.6 °C 30.13in /  1020.2hPa Calm     56% 0.00in /  0mm 0 W/m2
23:24 53.6 °F /  12 °C 38.8 °F /  3.8 °C 30.13in /  1020.2hPa Calm     56.9% 0.00in /  0mm 0 W/m2
23:29 53.5 °F /  11.9 °C 39.1 °F /  3.9 °C 30.14in /  1020.5hPa Calm     58% 0.00in /  0mm 0 W/m2
23:34 53.3 °F /  11.8 °C 38.5 °F /  3.6 °C 30.14in /  1020.5hPa Calm     57% 0.00in /  0mm 0 W/m2
23:39 53.2 °F /  11.8 °C 38.4 °F /  3.6 °C 30.14in /  1020.5hPa Calm     57% 0.00in /  0mm 0 W/m2
23:44 53.1 °F /  11.7 °C 38.4 °F /  3.6 °C 30.14in /  1020.5hPa Calm     57.3% 0.00in /  0mm 0 W/m2
23:49 52.9 °F /  11.6 °C 38.9 °F /  3.8 °C 30.14in /  1020.5hPa Calm     58.8% 0.00in /  0mm 0 W/m2
23:54 52.8 °F /  11.6 °C 38.9 °F /  3.8 °C 30.14in /  1020.5hPa Calm     59% 0.00in /  0mm 0 W/m2
23:59 52.7 °F /  11.5 °C 38.8 °F /  3.8 °C 30.14in /  1020.5hPa Calm     59.2% 0.00in /  0mm 0 W/m2
Hartford County Weather
Compliments of Weather Underground - 4 mb